首页
METAR-TAF:

METAR-TAF

机场 :

Fort Riley, 堪薩斯州, 美国

纬度: 39-06N, 经度: 096-46W, 海拔: 325米

当前天气观测

该预报发布于44分钟前的05:55 UTC
风速11节,风向
温度 30°C
湿度 59%
气压 1009 hPa
能見度: 16.1公里
天空无云

METAR: KFRI 250555Z AUTO 19011KT 10SM CLR 30/21 A2979 RMK AO2 SLP072 T03040209 10361 20304 51008 PNO $

时间: 01:39 (06:39 UTC)

预报

该预报发布于2小时和39分钟前的04:00 UTC
预报有效从25日的 04点(UTC)到 26日的 10点(UTC)
风速10节,风向南转西南,有时为15节阵风
能见度10公里或以上
少量云层高于20000英尺
成为
从 25日的 13点(UTC)到 25日的 14点(UTC)
风速15节,风向南转西南,有时为25节阵风
能见度10公里或以上
少量云层高于20000英尺
成为
从 25日的 22点(UTC)到 25日的 23点(UTC)
风速10节,风向,有时为15节阵风
能见度10公里或以上
少量云层高于20000英尺

TAF: KFRI 250400Z 2504/2610 20010G15KT 9999 FEW200 QNH2977INS BECMG 2513/2514 20015G25KT 9999 FEW200 QNH2969INS BECMG 2522/2523 18010G15KT 9999 FEW200 QNH2968INS TX39/2519Z TN24/2511Z

超过4000个机场的气象观测和天气预报(METAR&TAF报告)。

可查询的气象台以黄色和红色小点在地图上表示。

将鼠标移到小点上方,可查看气象台名称。

然后点击查看天气观测和预报。

如需切换地图:点击带黑十字的绿色按钮放大地图;点击带横线的绿色按钮缩小地图;或者点击绿色箭头查看邻近地区的地图。


METAR-TAF: